sensor_id;sensor_type;location;lat;lon;timestamp;P1;durP1;ratioP1;P2;durP2;ratioP2
61373;SDS011;47242;48.158;-1.586;2023-03-20T05:31:23;9.40;;;3.30;;
61373;SDS011;47242;48.158;-1.586;2023-03-20T05:33:48;6.95;;;3.03;;
61373;SDS011;47242;48.158;-1.586;2023-03-20T05:36:14;8.43;;;3.33;;
61373;SDS011;47242;48.158;-1.586;2023-03-20T05:38:40;6.70;;;3.63;;
61373;SDS011;47242;48.158;-1.586;2023-03-20T05:41:05;4.55;;;2.65;;
61373;SDS011;47242;48.158;-1.586;2023-03-20T05:43:31;4.88;;;3.13;;
61373;SDS011;47242;48.158;-1.586;2023-03-20T05:45:57;5.57;;;3.03;;
61373;SDS011;47242;48.158;-1.586;2023-03-20T05:48:23;6.35;;;2.88;;
61373;SDS011;47242;48.158;-1.586;2023-03-20T05:50:48;9.77;;;2.90;;
61373;SDS011;47242;48.158;-1.586;2023-03-20T05:53:14;4.95;;;3.50;;
61373;SDS011;47242;48.158;-1.586;2023-03-20T05:55:40;10.32;;;3.28;;
61373;SDS011;47242;48.158;-1.586;2023-03-20T05:58:08;8.40;;;3.13;;
61373;SDS011;47242;48.158;-1.586;2023-03-20T06:00:35;5.78;;;2.88;;
61373;SDS011;47242;48.158;-1.586;2023-03-20T06:03:02;5.15;;;2.88;;
61373;SDS011;47242;48.158;-1.586;2023-03-20T06:05:27;7.63;;;2.90;;
61373;SDS011;47242;48.158;-1.586;2023-03-20T06:07:53;7.60;;;2.97;;
61373;SDS011;47242;48.158;-1.586;2023-03-20T06:10:26;7.50;;;3.25;;
61373;SDS011;47242;48.158;-1.586;2023-03-20T06:12:54;5.65;;;2.88;;
61373;SDS011;47242;48.158;-1.586;2023-03-20T06:15:20;9.90;;;3.42;;
61373;SDS011;47242;48.158;-1.586;2023-03-20T06:17:46;14.48;;;3.30;;
61373;SDS011;47242;48.158;-1.586;2023-03-20T06:20:11;9.27;;;3.65;;
61373;SDS011;47242;48.158;-1.586;2023-03-20T06:22:37;6.72;;;2.55;;
61373;SDS011;47242;48.158;-1.586;2023-03-20T06:25:03;7.10;;;3.00;;
61373;SDS011;47242;48.158;-1.586;2023-03-20T06:27:30;10.35;;;3.72;;
61373;SDS011;47242;48.158;-1.586;2023-03-20T06:29:56;10.52;;;3.20;;
61373;SDS011;47242;48.158;-1.586;2023-03-20T06:32:21;5.90;;;3.65;;
61373;SDS011;47242;48.158;-1.586;2023-03-20T06:34:48;5.30;;;2.80;;
61373;SDS011;47242;48.158;-1.586;2023-03-20T06:37:14;7.13;;;3.55;;
61373;SDS011;47242;48.158;-1.586;2023-03-20T06:39:40;8.93;;;4.82;;
61373;SDS011;47242;48.158;-1.586;2023-03-20T06:42:05;15.73;;;5.47;;
61373;SDS011;47242;48.158;-1.586;2023-03-20T06:44:31;13.85;;;6.43;;
61373;SDS011;47242;48.158;-1.586;2023-03-20T06:46:57;13.70;;;5.97;;
61373;SDS011;47242;48.158;-1.586;2023-03-20T06:49:22;10.15;;;6.00;;
61373;SDS011;47242;48.158;-1.586;2023-03-20T06:51:48;12.07;;;6.18;;
61373;SDS011;47242;48.158;-1.586;2023-03-20T06:54:14;18.88;;;8.48;;
61373;SDS011;47242;48.158;-1.586;2023-03-20T06:56:40;17.35;;;8.85;;
61373;SDS011;47242;48.158;-1.586;2023-03-20T06:59:05;18.98;;;11.38;;
61373;SDS011;47242;48.158;-1.586;2023-03-20T07:01:31;19.42;;;12.00;;
61373;SDS011;47242;48.158;-1.586;2023-03-20T07:03:57;28.73;;;18.25;;
61373;SDS011;47242;48.158;-1.586;2023-03-20T07:06:23;27.55;;;14.85;;
61373;SDS011;47242;48.158;-1.586;2023-03-20T07:08:48;23.50;;;14.20;;
61373;SDS011;47242;48.158;-1.586;2023-03-20T07:11:16;20.95;;;12.88;;
61373;SDS011;47242;48.158;-1.586;2023-03-20T07:13:42;24.77;;;12.65;;
61373;SDS011;47242;48.158;-1.586;2023-03-20T07:16:08;18.58;;;10.07;;
61373;SDS011;47242;48.158;-1.586;2023-03-20T07:18:36;15.85;;;9.48;;
61373;SDS011;47242;48.158;-1.586;2023-03-20T07:21:03;17.25;;;9.73;;
61373;SDS011;47242;48.158;-1.586;2023-03-20T07:23:30;18.00;;;9.30;;
61373;SDS011;47242;48.158;-1.586;2023-03-20T07:25:58;20.58;;;9.65;;
61373;SDS011;47242;48.158;-1.586;2023-03-20T07:28:24;16.25;;;9.15;;
61373;SDS011;47242;48.158;-1.586;2023-03-20T07:30:50;19.92;;;9.95;;
61373;SDS011;47242;48.158;-1.586;2023-03-20T07:33:16;24.30;;;10.32;;
61373;SDS011;47242;48.158;-1.586;2023-03-20T07:35:42;21.13;;;9.68;;
61373;SDS011;47242;48.158;-1.586;2023-03-20T07:38:07;18.00;;;9.13;;
61373;SDS011;47242;48.158;-1.586;2023-03-20T07:40:33;19.38;;;7.97;;
61373;SDS011;47242;48.158;-1.586;2023-03-20T07:42:59;12.57;;;5.85;;
61373;SDS011;47242;48.158;-1.586;2023-03-20T07:45:25;18.77;;;6.07;;
61373;SDS011;47242;48.158;-1.586;2023-03-20T07:47:50;18.83;;;6.60;;
61373;SDS011;47242;48.158;-1.586;2023-03-20T07:50:16;10.48;;;4.43;;
61373;SDS011;47242;48.158;-1.586;2023-03-20T07:52:46;13.07;;;4.18;;
61373;SDS011;47242;48.158;-1.586;2023-03-20T07:55:12;10.68;;;3.88;;
61373;SDS011;47242;48.158;-1.586;2023-03-20T07:57:38;12.35;;;3.20;;
61373;SDS011;47242;48.158;-1.586;2023-03-20T08:00:04;10.77;;;2.92;;
61373;SDS011;47242;48.158;-1.586;2023-03-20T08:02:31;12.10;;;3.38;;
61373;SDS011;47242;48.158;-1.586;2023-03-20T08:04:58;9.98;;;3.10;;
61373;SDS011;47242;48.158;-1.586;2023-03-20T08:07:24;10.85;;;2.50;;
61373;SDS011;47242;48.158;-1.586;2023-03-20T08:09:50;8.45;;;2.80;;
61373;SDS011;47242;48.158;-1.586;2023-03-20T08:12:16;13.32;;;3.33;;
61373;SDS011;47242;48.158;-1.586;2023-03-20T08:14:42;12.82;;;2.75;;
61373;SDS011;47242;48.158;-1.586;2023-03-20T08:17:08;10.63;;;3.22;;
61373;SDS011;47242;48.158;-1.586;2023-03-20T08:19:34;10.25;;;3.40;;
61373;SDS011;47242;48.158;-1.586;2023-03-20T08:22:00;14.88;;;3.50;;
61373;SDS011;47242;48.158;-1.586;2023-03-20T08:24:26;12.50;;;3.70;;
61373;SDS011;47242;48.158;-1.586;2023-03-20T08:26:52;10.13;;;4.07;;
61373;SDS011;47242;48.158;-1.586;2023-03-20T08:29:17;13.02;;;4.95;;
61373;SDS011;47242;48.158;-1.586;2023-03-20T08:31:44;12.40;;;4.35;;
61373;SDS011;47242;48.158;-1.586;2023-03-20T08:34:09;11.50;;;4.10;;
61373;SDS011;47242;48.158;-1.586;2023-03-20T08:36:35;15.98;;;5.43;;
61373;SDS011;47242;48.158;-1.586;2023-03-20T08:39:03;11.82;;;5.50;;
61373;SDS011;47242;48.158;-1.586;2023-03-20T08:41:30;17.73;;;4.95;;
61373;SDS011;47242;48.158;-1.586;2023-03-20T08:43:57;13.23;;;4.63;;
61373;SDS011;47242;48.158;-1.586;2023-03-20T08:46:22;18.65;;;4.32;;
61373;SDS011;47242;48.158;-1.586;2023-03-20T08:48:48;14.38;;;4.45;;
61373;SDS011;47242;48.158;-1.586;2023-03-20T08:51:14;16.23;;;5.00;;
61373;SDS011;47242;48.158;-1.586;2023-03-20T08:53:40;12.98;;;3.67;;
61373;SDS011;47242;48.158;-1.586;2023-03-20T08:56:06;7.85;;;3.40;;
61373;SDS011;47242;48.158;-1.586;2023-03-20T08:58:32;9.18;;;2.72;;
61373;SDS011;47242;48.158;-1.586;2023-03-20T09:01:02;8.38;;;3.35;;
61373;SDS011;47242;48.158;-1.586;2023-03-20T09:03:32;16.20;;;3.80;;
61373;SDS011;47242;48.158;-1.586;2023-03-20T09:05:58;7.07;;;3.10;;
61373;SDS011;47242;48.158;-1.586;2023-03-20T09:08:23;11.82;;;3.53;;
61373;SDS011;47242;48.158;-1.586;2023-03-20T09:10:49;11.23;;;3.35;;
61373;SDS011;47242;48.158;-1.586;2023-03-20T09:13:15;12.43;;;4.13;;
61373;SDS011;47242;48.158;-1.586;2023-03-20T09:15:41;6.97;;;3.03;;
61373;SDS011;47242;48.158;-1.586;2023-03-20T09:18:07;13.18;;;2.90;;
61373;SDS011;47242;48.158;-1.586;2023-03-20T09:20:32;15.13;;;3.50;;
61373;SDS011;47242;48.158;-1.586;2023-03-20T09:22:58;10.98;;;3.92;;
61373;SDS011;47242;48.158;-1.586;2023-03-20T09:25:24;15.35;;;3.63;;
61373;SDS011;47242;48.158;-1.586;2023-03-20T09:27:51;6.10;;;2.40;;
61373;SDS011;47242;48.158;-1.586;2023-03-20T09:30:19;9.32;;;2.65;;
61373;SDS011;47242;48.158;-1.586;2023-03-20T09:32:46;9.07;;;2.15;;
61373;SDS011;47242;48.158;-1.586;2023-03-20T09:35:12;6.95;;;2.47;;
61373;SDS011;47242;48.158;-1.586;2023-03-20T09:37:37;12.98;;;2.08;;
61373;SDS011;47242;48.158;-1.586;2023-03-20T09:40:03;9.38;;;1.95;;
61373;SDS011;47242;48.158;-1.586;2023-03-20T09:51:03;7.22;;;1.85;;
61373;SDS011;47242;48.158;-1.586;2023-03-20T09:53:56;6.05;;;1.63;;
61373;SDS011;47242;48.158;-1.586;2023-03-20T09:56:28;8.10;;;1.65;;
61373;SDS011;47242;48.158;-1.586;2023-03-20T09:58:58;11.93;;;2.30;;
61373;SDS011;47242;48.158;-1.586;2023-03-20T10:01:28;9.75;;;2.17;;
61373;SDS011;47242;48.158;-1.586;2023-03-20T10:03:58;5.07;;;1.45;;
61373;SDS011;47242;48.158;-1.586;2023-03-20T10:06:28;8.25;;;2.03;;
61373;SDS011;47242;48.158;-1.586;2023-03-20T10:08:54;6.15;;;1.83;;
61373;SDS011;47242;48.158;-1.586;2023-03-20T10:19:32;7.85;;;1.80;;
61373;SDS011;47242;48.158;-1.586;2023-03-20T10:22:19;7.53;;;1.70;;
61373;SDS011;47242;48.158;-1.586;2023-03-20T10:25:30;8.93;;;1.40;;
61373;SDS011;47242;48.158;-1.586;2023-03-20T10:28:11;5.70;;;1.30;;
61373;SDS011;47242;48.158;-1.586;2023-03-20T10:35:59;8.77;;;2.08;;
61373;SDS011;47242;48.158;-1.586;2023-03-20T10:39:05;5.68;;;1.92;;
61373;SDS011;47242;48.158;-1.586;2023-03-20T10:41:40;5.15;;;1.92;;
61373;SDS011;47242;48.158;-1.586;2023-03-20T10:44:15;10.80;;;2.00;;
61373;SDS011;47242;48.158;-1.586;2023-03-20T10:46:47;4.45;;;1.40;;
61373;SDS011;47242;48.158;-1.586;2023-03-20T10:52:03;6.80;;;2.03;;
61373;SDS011;47242;48.158;-1.586;2023-03-20T10:54:38;7.25;;;1.65;;
61373;SDS011;47242;48.158;-1.586;2023-03-20T10:57:08;10.52;;;1.73;;
61373;SDS011;47242;48.158;-1.586;2023-03-20T10:59:51;14.20;;;2.08;;
61373;SDS011;47242;48.158;-1.586;2023-03-20T11:02:20;5.80;;;2.00;;
61373;SDS011;47242;48.158;-1.586;2023-03-20T11:04:47;4.80;;;1.38;;
61373;SDS011;47242;48.158;-1.586;2023-03-20T11:07:24;6.07;;;2.15;;
61373;SDS011;47242;48.158;-1.586;2023-03-20T11:12:34;6.47;;;1.80;;
61373;SDS011;47242;48.158;-1.586;2023-03-20T11:15:13;7.90;;;1.75;;
61373;SDS011;47242;48.158;-1.586;2023-03-20T11:20:19;8.43;;;1.60;;
61373;SDS011;47242;48.158;-1.586;2023-03-20T11:22:46;7.55;;;1.35;;
61373;SDS011;47242;48.158;-1.586;2023-03-20T11:25:23;5.45;;;1.40;;
61373;SDS011;47242;48.158;-1.586;2023-03-20T11:27:55;7.28;;;1.60;;
61373;SDS011;47242;48.158;-1.586;2023-03-20T11:30:22;5.80;;;1.60;;
61373;SDS011;47242;48.158;-1.586;2023-03-20T11:32:49;6.07;;;1.33;;
61373;SDS011;47242;48.158;-1.586;2023-03-20T11:37:51;7.03;;;1.80;;
61373;SDS011;47242;48.158;-1.586;2023-03-20T11:40:22;9.95;;;1.67;;
61373;SDS011;47242;48.158;-1.586;2023-03-20T11:42:57;4.60;;;1.45;;
61373;SDS011;47242;48.158;-1.586;2023-03-20T11:45:33;6.20;;;1.80;;
61373;SDS011;47242;48.158;-1.586;2023-03-20T11:48:01;4.38;;;2.00;;
61373;SDS011;47242;48.158;-1.586;2023-03-20T11:50:30;3.30;;;1.13;;
61373;SDS011;47242;48.158;-1.586;2023-03-20T11:53:02;7.70;;;1.67;;
61373;SDS011;47242;48.158;-1.586;2023-03-20T11:55:41;5.70;;;2.13;;
61373;SDS011;47242;48.158;-1.586;2023-03-20T11:58:10;4.90;;;1.67;;
61373;SDS011;47242;48.158;-1.586;2023-03-20T12:00:40;4.15;;;1.27;;
61373;SDS011;47242;48.158;-1.586;2023-03-20T12:06:13;7.25;;;1.38;;
61373;SDS011;47242;48.158;-1.586;2023-03-20T12:09:08;10.73;;;2.17;;
61373;SDS011;47242;48.158;-1.586;2023-03-20T12:11:45;6.50;;;2.00;;
61373;SDS011;47242;48.158;-1.586;2023-03-20T12:14:39;5.30;;;1.85;;
61373;SDS011;47242;48.158;-1.586;2023-03-20T12:20:48;6.65;;;1.50;;
61373;SDS011;47242;48.158;-1.586;2023-03-20T12:25:42;10.07;;;2.35;;
61373;SDS011;47242;48.158;-1.586;2023-03-20T12:33:46;5.60;;;1.33;;
61373;SDS011;47242;48.158;-1.586;2023-03-20T12:36:19;7.20;;;1.95;;
61373;SDS011;47242;48.158;-1.586;2023-03-20T12:49:43;7.47;;;2.80;;
61373;SDS011;47242;48.158;-1.586;2023-03-20T12:52:29;5.35;;;1.90;;
61373;SDS011;47242;48.158;-1.586;2023-03-20T13:03:16;6.75;;;1.88;;
61373;SDS011;47242;48.158;-1.586;2023-03-20T13:05:56;7.05;;;1.90;;
61373;SDS011;47242;48.158;-1.586;2023-03-20T13:13:53;7.53;;;2.53;;
61373;SDS011;47242;48.158;-1.586;2023-03-20T13:19:10;5.63;;;2.15;;
61373;SDS011;47242;48.158;-1.586;2023-03-20T13:21:58;7.88;;;1.98;;
61373;SDS011;47242;48.158;-1.586;2023-03-20T13:27:17;7.80;;;1.85;;
61373;SDS011;47242;48.158;-1.586;2023-03-20T13:29:59;7.80;;;2.20;;
61373;SDS011;47242;48.158;-1.586;2023-03-20T13:32:40;5.18;;;1.45;;
61373;SDS011;47242;48.158;-1.586;2023-03-20T13:38:15;8.52;;;2.22;;
61373;SDS011;47242;48.158;-1.586;2023-03-20T13:40:45;13.00;;;2.30;;
61373;SDS011;47242;48.158;-1.586;2023-03-20T13:45:41;5.28;;;1.95;;
61373;SDS011;47242;48.158;-1.586;2023-03-20T13:53:36;6.63;;;1.70;;
61373;SDS011;47242;48.158;-1.586;2023-03-20T13:56:46;5.28;;;1.80;;
61373;SDS011;47242;48.158;-1.586;2023-03-20T14:05:00;7.07;;;1.85;;
61373;SDS011;47242;48.158;-1.586;2023-03-20T14:07:37;8.75;;;2.15;;
61373;SDS011;47242;48.158;-1.586;2023-03-20T14:10:52;9.50;;;2.47;;
61373;SDS011;47242;48.158;-1.586;2023-03-20T14:12:56;7.55;;;1.90;;
61373;SDS011;47242;48.158;-1.586;2023-03-20T14:15:48;4.43;;;1.80;;
61373;SDS011;47242;48.158;-1.586;2023-03-20T14:18:20;6.88;;;1.98;;
61373;SDS011;47242;48.158;-1.586;2023-03-20T14:21:09;5.93;;;1.70;;
61373;SDS011;47242;48.158;-1.586;2023-03-20T14:23:38;10.05;;;1.80;;
61373;SDS011;47242;48.158;-1.586;2023-03-20T14:26:21;9.73;;;2.10;;
61373;SDS011;47242;48.158;-1.586;2023-03-20T14:28:52;11.60;;;1.95;;
61373;SDS011;47242;48.158;-1.586;2023-03-20T14:33:59;7.25;;;1.88;;
61373;SDS011;47242;48.158;-1.586;2023-03-20T14:36:43;6.45;;;1.60;;
61373;SDS011;47242;48.158;-1.586;2023-03-20T14:47:35;4.32;;;1.52;;
61373;SDS011;47242;48.158;-1.586;2023-03-20T14:57:54;4.45;;;1.27;;
61373;SDS011;47242;48.158;-1.586;2023-03-20T15:02:47;6.07;;;1.75;;
61373;SDS011;47242;48.158;-1.586;2023-03-20T15:05:26;7.45;;;1.92;;
61373;SDS011;47242;48.158;-1.586;2023-03-20T15:07:55;9.32;;;1.52;;
61373;SDS011;47242;48.158;-1.586;2023-03-20T15:10:26;7.20;;;1.48;;
61373;SDS011;47242;48.158;-1.586;2023-03-20T15:12:52;4.18;;;1.73;;
61373;SDS011;47242;48.158;-1.586;2023-03-20T15:15:37;7.78;;;2.28;;
61373;SDS011;47242;48.158;-1.586;2023-03-20T15:18:15;9.30;;;1.50;;
61373;SDS011;47242;48.158;-1.586;2023-03-20T15:20:42;4.03;;;1.42;;
61373;SDS011;47242;48.158;-1.586;2023-03-20T15:23:09;5.65;;;1.58;;
61373;SDS011;47242;48.158;-1.586;2023-03-20T15:25:38;6.97;;;1.60;;
61373;SDS011;47242;48.158;-1.586;2023-03-20T15:28:07;8.43;;;1.70;;
61373;SDS011;47242;48.158;-1.586;2023-03-20T15:30:38;8.98;;;1.85;;
61373;SDS011;47242;48.158;-1.586;2023-03-20T15:33:05;2.00;;;1.23;;
61373;SDS011;47242;48.158;-1.586;2023-03-20T15:35:36;6.65;;;1.52;;
61373;SDS011;47242;48.158;-1.586;2023-03-20T15:38:03;7.43;;;1.85;;
61373;SDS011;47242;48.158;-1.586;2023-03-20T15:40:31;3.47;;;1.50;;
61373;SDS011;47242;48.158;-1.586;2023-03-20T15:43:12;5.07;;;1.60;;
61373;SDS011;47242;48.158;-1.586;2023-03-20T15:45:43;8.63;;;1.80;;
61373;SDS011;47242;48.158;-1.586;2023-03-20T15:48:12;6.13;;;1.85;;
61373;SDS011;47242;48.158;-1.586;2023-03-20T15:50:40;6.63;;;1.50;;
61373;SDS011;47242;48.158;-1.586;2023-03-20T15:53:12;11.25;;;1.95;;
61373;SDS011;47242;48.158;-1.586;2023-03-20T15:55:48;7.97;;;1.60;;
61373;SDS011;47242;48.158;-1.586;2023-03-20T15:58:17;4.60;;;1.65;;
61373;SDS011;47242;48.158;-1.586;2023-03-20T16:00:44;5.05;;;1.55;;
61373;SDS011;47242;48.158;-1.586;2023-03-20T16:03:13;7.60;;;2.15;;
61373;SDS011;47242;48.158;-1.586;2023-03-20T16:05:43;8.35;;;2.08;;
61373;SDS011;47242;48.158;-1.586;2023-03-20T16:08:11;3.63;;;1.50;;
61373;SDS011;47242;48.158;-1.586;2023-03-20T16:10:43;8.57;;;1.77;;
61373;SDS011;47242;48.158;-1.586;2023-03-20T16:13:11;7.93;;;1.60;;
61373;SDS011;47242;48.158;-1.586;2023-03-20T16:15:41;5.25;;;1.90;;
61373;SDS011;47242;48.158;-1.586;2023-03-20T16:18:07;5.25;;;1.98;;
61373;SDS011;47242;48.158;-1.586;2023-03-20T16:20:39;6.35;;;1.50;;
61373;SDS011;47242;48.158;-1.586;2023-03-20T16:23:13;7.05;;;1.73;;
61373;SDS011;47242;48.158;-1.586;2023-03-20T16:28:20;6.05;;;1.73;;
61373;SDS011;47242;48.158;-1.586;2023-03-20T16:30:46;8.50;;;1.45;;
61373;SDS011;47242;48.158;-1.586;2023-03-20T16:33:14;4.22;;;1.75;;
61373;SDS011;47242;48.158;-1.586;2023-03-20T16:35:42;5.20;;;1.65;;
61373;SDS011;47242;48.158;-1.586;2023-03-20T16:38:53;6.20;;;1.53;;
61373;SDS011;47242;48.158;-1.586;2023-03-20T16:43:43;4.05;;;1.30;;
61373;SDS011;47242;48.158;-1.586;2023-03-20T16:46:15;4.63;;;2.22;;
61373;SDS011;47242;48.158;-1.586;2023-03-20T16:48:45;6.63;;;1.48;;
61373;SDS011;47242;48.158;-1.586;2023-03-20T16:51:19;3.50;;;1.63;;
61373;SDS011;47242;48.158;-1.586;2023-03-20T16:53:54;2.88;;;1.35;;
61373;SDS011;47242;48.158;-1.586;2023-03-20T16:56:25;5.90;;;1.98;;
61373;SDS011;47242;48.158;-1.586;2023-03-20T16:58:53;4.00;;;1.42;;
61373;SDS011;47242;48.158;-1.586;2023-03-20T17:01:20;5.22;;;1.58;;
61373;SDS011;47242;48.158;-1.586;2023-03-20T17:03:55;4.20;;;1.75;;
61373;SDS011;47242;48.158;-1.586;2023-03-20T17:09:21;2.72;;;1.65;;
61373;SDS011;47242;48.158;-1.586;2023-03-20T17:11:50;11.70;;;1.90;;
61373;SDS011;47242;48.158;-1.586;2023-03-20T17:14:34;5.65;;;1.58;;
61373;SDS011;47242;48.158;-1.586;2023-03-20T17:17:00;5.30;;;1.40;;
61373;SDS011;47242;48.158;-1.586;2023-03-20T17:19:26;6.38;;;1.70;;
61373;SDS011;47242;48.158;-1.586;2023-03-20T17:21:52;2.22;;;1.35;;
61373;SDS011;47242;48.158;-1.586;2023-03-20T17:24:17;6.75;;;1.50;;
61373;SDS011;47242;48.158;-1.586;2023-03-20T17:26:44;5.55;;;1.50;;
61373;SDS011;47242;48.158;-1.586;2023-03-20T17:29:16;8.63;;;1.80;;
61373;SDS011;47242;48.158;-1.586;2023-03-20T17:31:41;7.07;;;1.58;;
61373;SDS011;47242;48.158;-1.586;2023-03-20T17:34:08;4.95;;;1.45;;
61373;SDS011;47242;48.158;-1.586;2023-03-20T17:36:37;4.97;;;1.42;;
61373;SDS011;47242;48.158;-1.586;2023-03-20T17:39:02;4.53;;;1.48;;
61373;SDS011;47242;48.158;-1.586;2023-03-20T17:41:28;4.18;;;1.42;;
61373;SDS011;47242;48.158;-1.586;2023-03-20T17:43:54;6.03;;;1.70;;
61373;SDS011;47242;48.158;-1.586;2023-03-20T17:48:52;8.52;;;1.27;;
61373;SDS011;47242;48.158;-1.586;2023-03-20T17:51:21;3.95;;;1.85;;
61373;SDS011;47242;48.158;-1.586;2023-03-20T17:53:47;3.92;;;1.00;;
61373;SDS011;47242;48.158;-1.586;2023-03-20T17:56:13;4.95;;;1.35;;
61373;SDS011;47242;48.158;-1.586;2023-03-20T17:58:40;3.17;;;0.90;;
61373;SDS011;47242;48.158;-1.586;2023-03-20T18:01:09;2.28;;;1.00;;
61373;SDS011;47242;48.158;-1.586;2023-03-20T18:03:35;5.32;;;1.50;;
61373;SDS011;47242;48.158;-1.586;2023-03-20T18:06:00;3.67;;;1.42;;
61373;SDS011;47242;48.158;-1.586;2023-03-20T18:08:27;4.40;;;1.30;;
61373;SDS011;47242;48.158;-1.586;2023-03-20T18:10:53;7.97;;;1.45;;
61373;SDS011;47242;48.158;-1.586;2023-03-20T18:13:19;3.08;;;0.93;;
61373;SDS011;47242;48.158;-1.586;2023-03-20T18:15:46;3.60;;;1.25;;
61373;SDS011;47242;48.158;-1.586;2023-03-20T18:18:13;3.60;;;1.30;;
61373;SDS011;47242;48.158;-1.586;2023-03-20T18:20:40;4.78;;;1.38;;
61373;SDS011;47242;48.158;-1.586;2023-03-20T18:23:06;2.80;;;1.08;;
61373;SDS011;47242;48.158;-1.586;2023-03-20T18:25:32;4.35;;;1.90;;
61373;SDS011;47242;48.158;-1.586;2023-03-20T18:27:59;5.53;;;1.20;;
61373;SDS011;47242;48.158;-1.586;2023-03-20T18:30:29;7.88;;;1.83;;
61373;SDS011;47242;48.158;-1.586;2023-03-20T18:32:57;4.07;;;1.80;;
61373;SDS011;47242;48.158;-1.586;2023-03-20T18:35:22;6.78;;;1.95;;
61373;SDS011;47242;48.158;-1.586;2023-03-20T18:37:48;6.70;;;2.00;;
61373;SDS011;47242;48.158;-1.586;2023-03-20T18:40:18;3.55;;;1.63;;
61373;SDS011;47242;48.158;-1.586;2023-03-20T18:42:47;2.63;;;1.63;;
61373;SDS011;47242;48.158;-1.586;2023-03-20T18:45:12;18.33;;;5.03;;
61373;SDS011;47242;48.158;-1.586;2023-03-20T18:47:39;14.95;;;3.97;;
61373;SDS011;47242;48.158;-1.586;2023-03-20T18:50:05;8.40;;;2.17;;
61373;SDS011;47242;48.158;-1.586;2023-03-20T18:52:44;8.33;;;2.97;;
61373;SDS011;47242;48.158;-1.586;2023-03-20T18:55:10;10.82;;;4.35;;
61373;SDS011;47242;48.158;-1.586;2023-03-20T18:57:35;4.40;;;2.55;;
61373;SDS011;47242;48.158;-1.586;2023-03-20T19:00:10;7.70;;;3.22;;
61373;SDS011;47242;48.158;-1.586;2023-03-20T19:02:48;3.17;;;1.73;;
61373;SDS011;47242;48.158;-1.586;2023-03-20T19:05:15;8.43;;;2.33;;
61373;SDS011;47242;48.158;-1.586;2023-03-20T19:07:42;6.13;;;2.05;;
61373;SDS011;47242;48.158;-1.586;2023-03-20T19:10:55;8.23;;;1.83;;
61373;SDS011;47242;48.158;-1.586;2023-03-20T19:13:03;5.40;;;1.73;;
61373;SDS011;47242;48.158;-1.586;2023-03-20T19:15:31;7.43;;;2.00;;
61373;SDS011;47242;48.158;-1.586;2023-03-20T19:18:01;4.68;;;2.00;;
61373;SDS011;47242;48.158;-1.586;2023-03-20T19:23:00;5.68;;;2.08;;
61373;SDS011;47242;48.158;-1.586;2023-03-20T19:25:32;6.80;;;2.35;;
61373;SDS011;47242;48.158;-1.586;2023-03-20T19:27:59;7.40;;;2.15;;
61373;SDS011;47242;48.158;-1.586;2023-03-20T19:30:35;4.80;;;1.92;;
61373;SDS011;47242;48.158;-1.586;2023-03-20T19:33:02;5.38;;;1.98;;
61373;SDS011;47242;48.158;-1.586;2023-03-20T19:35:30;4.47;;;2.10;;
61373;SDS011;47242;48.158;-1.586;2023-03-20T19:37:56;5.22;;;1.95;;
61373;SDS011;47242;48.158;-1.586;2023-03-20T19:40:24;6.97;;;2.28;;
61373;SDS011;47242;48.158;-1.586;2023-03-20T19:42:52;8.05;;;1.65;;
61373;SDS011;47242;48.158;-1.586;2023-03-20T19:45:20;7.25;;;2.08;;
61373;SDS011;47242;48.158;-1.586;2023-03-20T19:47:46;6.95;;;2.08;;
61373;SDS011;47242;48.158;-1.586;2023-03-20T19:50:21;6.95;;;2.15;;
61373;SDS011;47242;48.158;-1.586;2023-03-20T19:52:48;3.75;;;1.77;;
61373;SDS011;47242;48.158;-1.586;2023-03-20T19:55:13;7.30;;;2.10;;
61373;SDS011;47242;48.158;-1.586;2023-03-20T19:57:40;6.95;;;1.98;;
61373;SDS011;47242;48.158;-1.586;2023-03-20T20:00:06;5.35;;;1.83;;
61373;SDS011;47242;48.158;-1.586;2023-03-20T20:02:33;4.28;;;1.55;;
61373;SDS011;47242;48.158;-1.586;2023-03-20T20:04:59;4.95;;;2.38;;
61373;SDS011;47242;48.158;-1.586;2023-03-20T20:07:24;7.50;;;2.67;;
61373;SDS011;47242;48.158;-1.586;2023-03-20T20:09:51;8.52;;;3.03;;
61373;SDS011;47242;48.158;-1.586;2023-03-20T20:12:16;7.75;;;2.20;;
61373;SDS011;47242;48.158;-1.586;2023-03-20T20:14:42;9.00;;;2.50;;
61373;SDS011;47242;48.158;-1.586;2023-03-20T20:17:07;6.78;;;2.65;;
61373;SDS011;47242;48.158;-1.586;2023-03-20T20:19:33;3.13;;;2.13;;
61373;SDS011;47242;48.158;-1.586;2023-03-20T20:21:59;6.40;;;2.40;;
61373;SDS011;47242;48.158;-1.586;2023-03-20T20:24:24;9.60;;;2.45;;
61373;SDS011;47242;48.158;-1.586;2023-03-20T20:26:51;11.02;;;3.30;;
61373;SDS011;47242;48.158;-1.586;2023-03-20T20:29:17;8.55;;;2.47;;
61373;SDS011;47242;48.158;-1.586;2023-03-20T20:31:43;6.30;;;2.78;;
61373;SDS011;47242;48.158;-1.586;2023-03-20T20:34:09;5.05;;;2.60;;
61373;SDS011;47242;48.158;-1.586;2023-03-20T20:36:35;5.70;;;2.67;;
61373;SDS011;47242;48.158;-1.586;2023-03-20T20:39:01;4.45;;;2.47;;
61373;SDS011;47242;48.158;-1.586;2023-03-20T20:41:27;6.05;;;2.50;;
61373;SDS011;47242;48.158;-1.586;2023-03-20T20:43:53;4.60;;;2.60;;
61373;SDS011;47242;48.158;-1.586;2023-03-20T20:46:20;7.00;;;2.65;;
61373;SDS011;47242;48.158;-1.586;2023-03-20T20:48:47;5.93;;;2.38;;
61373;SDS011;47242;48.158;-1.586;2023-03-20T20:51:13;5.90;;;2.22;;
61373;SDS011;47242;48.158;-1.586;2023-03-20T20:53:39;8.40;;;2.70;;
61373;SDS011;47242;48.158;-1.586;2023-03-20T20:56:05;5.50;;;2.50;;
61373;SDS011;47242;48.158;-1.586;2023-03-20T20:58:31;8.77;;;3.15;;
61373;SDS011;47242;48.158;-1.586;2023-03-20T21:00:59;4.70;;;2.65;;
61373;SDS011;47242;48.158;-1.586;2023-03-20T21:03:25;6.90;;;2.55;;
61373;SDS011;47242;48.158;-1.586;2023-03-20T21:05:53;6.07;;;2.42;;
61373;SDS011;47242;48.158;-1.586;2023-03-20T21:08:19;7.03;;;2.38;;
61373;SDS011;47242;48.158;-1.586;2023-03-20T21:10:46;6.13;;;2.15;;
61373;SDS011;47242;48.158;-1.586;2023-03-20T21:13:12;7.28;;;2.47;;
61373;SDS011;47242;48.158;-1.586;2023-03-20T21:15:39;5.28;;;2.05;;
61373;SDS011;47242;48.158;-1.586;2023-03-20T21:18:05;4.10;;;2.13;;
61373;SDS011;47242;48.158;-1.586;2023-03-20T21:20:31;8.05;;;2.30;;
61373;SDS011;47242;48.158;-1.586;2023-03-20T21:22:57;3.65;;;2.05;;
61373;SDS011;47242;48.158;-1.586;2023-03-20T21:25:23;5.53;;;2.22;;
61373;SDS011;47242;48.158;-1.586;2023-03-20T21:27:48;6.40;;;2.47;;
61373;SDS011;47242;48.158;-1.586;2023-03-20T21:30:14;9.20;;;2.50;;
61373;SDS011;47242;48.158;-1.586;2023-03-20T21:32:41;7.07;;;2.20;;
61373;SDS011;47242;48.158;-1.586;2023-03-20T21:35:07;5.15;;;2.33;;
61373;SDS011;47242;48.158;-1.586;2023-03-20T21:37:33;4.60;;;2.15;;
61373;SDS011;47242;48.158;-1.586;2023-03-20T21:40:00;6.15;;;2.25;;
61373;SDS011;47242;48.158;-1.586;2023-03-20T21:42:26;4.13;;;1.95;;
61373;SDS011;47242;48.158;-1.586;2023-03-20T21:44:52;5.68;;;2.25;;
61373;SDS011;47242;48.158;-1.586;2023-03-20T21:47:18;7.03;;;2.08;;
61373;SDS011;47242;48.158;-1.586;2023-03-20T21:49:45;6.40;;;2.35;;
61373;SDS011;47242;48.158;-1.586;2023-03-20T21:52:11;6.55;;;2.00;;
61373;SDS011;47242;48.158;-1.586;2023-03-20T21:54:37;6.30;;;2.20;;
61373;SDS011;47242;48.158;-1.586;2023-03-20T21:57:03;5.03;;;2.53;;
61373;SDS011;47242;48.158;-1.586;2023-03-20T21:59:28;5.57;;;2.63;;
61373;SDS011;47242;48.158;-1.586;2023-03-20T22:01:54;10.65;;;2.85;;
61373;SDS011;47242;48.158;-1.586;2023-03-20T22:04:20;6.07;;;2.60;;
61373;SDS011;47242;48.158;-1.586;2023-03-20T22:06:46;6.63;;;2.20;;
61373;SDS011;47242;48.158;-1.586;2023-03-20T22:09:11;8.07;;;2.58;;
61373;SDS011;47242;48.158;-1.586;2023-03-20T22:11:37;8.13;;;2.70;;
61373;SDS011;47242;48.158;-1.586;2023-03-20T22:14:03;4.07;;;2.63;;
61373;SDS011;47242;48.158;-1.586;2023-03-20T22:16:29;7.90;;;2.65;;
61373;SDS011;47242;48.158;-1.586;2023-03-20T22:18:54;3.63;;;2.20;;
61373;SDS011;47242;48.158;-1.586;2023-03-20T22:21:20;6.97;;;2.33;;